createdAt,value
2023-05-24T00:01:13.063Z,100144.25
2023-05-24T00:04:15.789Z,100131.78
2023-05-24T00:07:18.978Z,100119.47
2023-05-24T00:10:21.779Z,100116.88
2023-05-24T00:13:24.475Z,100132.00
2023-05-24T00:16:27.133Z,100119.69
2023-05-24T00:19:29.655Z,100129.22
2023-05-24T00:22:32.148Z,100121.25
2023-05-24T00:25:34.637Z,100118.63
2023-05-24T00:28:37.663Z,100121.00
2023-05-24T00:31:40.473Z,100112.44
2023-05-24T00:34:42.931Z,100106.84
2023-05-24T00:37:48.213Z,100109.75
2023-05-24T00:40:52.005Z,100109.06
2023-05-24T00:43:54.692Z,100095.34
2023-05-24T00:46:57.444Z,100097.00
2023-05-24T00:50:00.641Z,100100.59
2023-05-24T00:53:03.994Z,100093.47
2023-05-24T00:56:07.475Z,100099.47
2023-05-24T00:59:10.547Z,100118.91
2023-05-24T01:02:14.519Z,100107.53
2023-05-24T01:05:20.010Z,100115.00
2023-05-24T01:08:53.193Z,100125.59
2023-05-24T01:12:15.521Z,100125.59
2023-05-24T01:15:24.315Z,100128.03
2023-05-24T01:18:32.136Z,100119.41
2023-05-24T01:22:09.359Z,100117.34
2023-05-24T01:25:37.275Z,100106.63
2023-05-24T01:28:43.286Z,100101.09
2023-05-24T01:31:46.058Z,100102.09
2023-05-24T01:34:48.644Z,100098.63
2023-05-24T01:37:52.126Z,100073.66
2023-05-24T01:41:28.534Z,100091.09
2023-05-24T01:44:42.290Z,100097.97
2023-05-24T01:47:53.916Z,100104.81
2023-05-24T01:50:59.875Z,100090.00
2023-05-24T01:54:06.527Z,100090.59
2023-05-24T01:57:10.500Z,100081.69
2023-05-24T02:00:19.534Z,100078.50
2023-05-24T02:03:22.284Z,100093.06
2023-05-24T02:06:25.633Z,100081.38
2023-05-24T02:09:28.108Z,100098.47
2023-05-24T02:12:31.451Z,100092.09
2023-05-24T02:15:35.413Z,100098.06
2023-05-24T02:18:38.725Z,100087.00
2023-05-24T02:21:41.854Z,100079.63
2023-05-24T02:24:48.461Z,100076.59
2023-05-24T02:27:52.166Z,100097.25
2023-05-24T02:30:54.788Z,100092.97
2023-05-24T02:33:58.494Z,100092.00
2023-05-24T02:37:02.218Z,100088.38
2023-05-24T02:40:05.665Z,100086.84
2023-05-24T02:43:09.767Z,100091.59
2023-05-24T02:46:12.917Z,100097.09
2023-05-24T02:49:15.652Z,100072.50
2023-05-24T02:52:21.666Z,100089.38
2023-05-24T02:55:24.197Z,100079.38
2023-05-24T02:58:30.478Z,100095.94
2023-05-24T03:01:34.438Z,100091.50
2023-05-24T03:04:38.097Z,100108.81
2023-05-24T03:07:41.277Z,100088.22
2023-05-24T03:10:44.329Z,100100.88
2023-05-24T03:13:49.350Z,100097.00
2023-05-24T03:16:51.938Z,100094.16
2023-05-24T03:19:54.644Z,100103.72
2023-05-24T03:22:57.380Z,100101.09
2023-05-24T03:25:59.850Z,100096.84
2023-05-24T03:29:02.521Z,100078.13
2023-05-24T03:32:11.532Z,100088.97
2023-05-24T03:35:13.967Z,100072.16
2023-05-24T03:38:16.574Z,100082.16
2023-05-24T03:41:21.607Z,100098.22
2023-05-24T03:44:24.180Z,100092.03
2023-05-24T03:47:26.783Z,100083.84
2023-05-24T03:50:29.267Z,100083.06
2023-05-24T03:53:32.404Z,100105.78
2023-05-24T03:56:35.874Z,100112.38
2023-05-24T03:59:39.779Z,100100.81
2023-05-24T04:02:43.736Z,100110.88
2023-05-24T04:05:46.446Z,100125.44
2023-05-24T04:08:49.046Z,100110.31
2023-05-24T04:11:51.730Z,100112.47
2023-05-24T04:14:54.216Z,100112.25
2023-05-24T04:17:56.796Z,100122.94
2023-05-24T04:20:59.366Z,100111.97
2023-05-24T04:24:02.072Z,100110.72
2023-05-24T04:27:04.720Z,100129.75
2023-05-24T04:30:09.265Z,100123.22
2023-05-24T04:33:11.944Z,100135.09
2023-05-24T04:36:14.424Z,100140.91
2023-05-24T04:39:16.894Z,100131.63
2023-05-24T04:42:19.454Z,100140.84
2023-05-24T04:45:22.280Z,100150.06
2023-05-24T04:48:25.218Z,100141.53
2023-05-24T04:51:27.974Z,100150.72
2023-05-24T04:54:30.593Z,100156.53
2023-05-24T04:57:33.064Z,100150.75
2023-05-24T05:00:35.688Z,100150.16
2023-05-24T05:03:39.040Z,100139.38
2023-05-24T05:06:44.705Z,100153.84
2023-05-24T05:09:47.700Z,100135.44
2023-05-24T05:12:51.168Z,100153.47
2023-05-24T05:15:53.765Z,100147.16
2023-05-24T05:18:56.445Z,100153.00
2023-05-24T05:21:58.958Z,100166.75
2023-05-24T05:25:01.809Z,100161.03
2023-05-24T05:28:04.361Z,100165.88
2023-05-24T05:31:06.869Z,100170.44
2023-05-24T05:34:10.221Z,100144.38
2023-05-24T05:37:13.608Z,100167.81
2023-05-24T05:40:16.917Z,100177.94
2023-05-24T05:43:19.509Z,100174.63
2023-05-24T05:46:22.387Z,100183.25
2023-05-24T05:49:24.997Z,100170.34
2023-05-24T05:52:27.503Z,100178.47
2023-05-24T05:55:30.106Z,100171.88
2023-05-24T05:58:32.891Z,100169.16
2023-05-24T06:01:35.494Z,100191.53
2023-05-24T06:04:38.030Z,100196.63
2023-05-24T06:07:40.538Z,100203.84
2023-05-24T06:10:43.333Z,100199.63
2023-05-24T06:13:45.945Z,100191.63
2023-05-24T06:16:48.577Z,100201.22
2023-05-24T06:19:53.813Z,100197.31
2023-05-24T06:22:57.413Z,100201.75
2023-05-24T06:26:01.606Z,100191.47
2023-05-24T06:29:04.847Z,100209.19
2023-05-24T06:32:07.915Z,100205.00
2023-05-24T06:35:10.764Z,100196.09
2023-05-24T06:38:13.261Z,100210.63
2023-05-24T06:41:16.059Z,100207.72
2023-05-24T06:44:18.623Z,100204.53
2023-05-24T06:47:22.322Z,100217.22
2023-05-24T06:50:25.292Z,100208.50
2023-05-24T06:53:28.040Z,100222.50
2023-05-24T06:56:30.864Z,100193.25
2023-05-24T06:59:33.537Z,100218.28
2023-05-24T07:02:36.111Z,100219.84
2023-05-24T07:05:39.025Z,100208.75
2023-05-24T07:08:42.473Z,100227.22
2023-05-24T07:11:46.263Z,100224.31
2023-05-24T07:14:48.947Z,100221.94
2023-05-24T07:17:51.616Z,100223.50
2023-05-24T07:20:55.030Z,100220.81
2023-05-24T07:23:58.521Z,100209.63
2023-05-24T07:27:01.319Z,100220.41
2023-05-24T07:30:06.532Z,100223.00
2023-05-24T07:33:10.505Z,100225.34
2023-05-24T07:36:13.260Z,100239.59
2023-05-24T07:39:16.615Z,100229.84
2023-05-24T07:42:19.467Z,100241.75
2023-05-24T07:45:22.212Z,100235.69
2023-05-24T07:48:25.016Z,100241.34
2023-05-24T07:51:27.607Z,100242.25
2023-05-24T07:54:30.471Z,100234.34
2023-05-24T07:57:33.711Z,100250.31
2023-05-24T08:00:36.757Z,100253.16
2023-05-24T08:03:39.733Z,100258.28
2023-05-24T08:06:42.905Z,100251.31
2023-05-24T08:09:46.114Z,100250.09
2023-05-24T08:12:51.519Z,100262.25
2023-05-24T08:15:54.153Z,100268.28
2023-05-24T08:18:56.982Z,100253.50
2023-05-24T08:22:04.645Z,100246.66
2023-05-24T08:25:07.451Z,100250.91
2023-05-24T08:28:11.193Z,100256.28
2023-05-24T08:31:14.110Z,100264.78
2023-05-24T08:34:18.059Z,100264.94
2023-05-24T08:37:22.700Z,100264.13
2023-05-24T08:40:25.452Z,100262.47
2023-05-24T08:43:30.720Z,100271.91
2023-05-24T08:46:36.268Z,100277.22
2023-05-24T08:49:40.965Z,100269.25
2023-05-24T08:52:46.064Z,100279.53
2023-05-24T08:55:49.778Z,100272.91
2023-05-24T08:58:53.876Z,100291.28
2023-05-24T09:01:57.934Z,100287.41
2023-05-24T09:05:00.552Z,100283.56
2023-05-24T09:08:04.105Z,100286.22
2023-05-24T09:11:08.581Z,100271.69
2023-05-24T09:14:11.317Z,100292.84
2023-05-24T09:17:15.957Z,100278.59
2023-05-24T09:20:18.846Z,100277.41
2023-05-24T09:23:21.708Z,100287.72
2023-05-24T09:26:29.308Z,100278.00
2023-05-24T09:29:32.047Z,100284.06
2023-05-24T09:32:34.626Z,100271.75
2023-05-24T09:35:37.564Z,100280.97
2023-05-24T09:38:40.037Z,100268.16
2023-05-24T09:41:44.384Z,100267.50
2023-05-24T09:44:48.419Z,100280.53
2023-05-24T09:47:52.844Z,100283.44
2023-05-24T09:51:11.946Z,100266.81
2023-05-24T09:54:15.860Z,100271.78
2023-05-24T09:57:19.231Z,100291.94
2023-05-24T10:00:23.772Z,100276.28
2023-05-24T10:03:26.375Z,100276.19
2023-05-24T10:06:29.592Z,100293.22
2023-05-24T10:09:35.392Z,100298.81
2023-05-24T10:12:43.002Z,100287.44
2023-05-24T10:15:45.492Z,100292.19
2023-05-24T10:18:48.053Z,100287.16
2023-05-24T10:21:52.880Z,100286.75
2023-05-24T10:25:00.153Z,100292.22
2023-05-24T10:28:07.360Z,100298.75
2023-05-24T10:31:17.462Z,100274.31
2023-05-24T10:34:21.117Z,100282.84
2023-05-24T10:37:24.996Z,100271.38
2023-05-24T10:40:27.631Z,100296.19
2023-05-24T10:43:30.713Z,100285.16
2023-05-24T10:46:33.409Z,100281.34
2023-05-24T10:49:37.360Z,100295.19
2023-05-24T10:52:40.041Z,100281.91
2023-05-24T10:56:04.116Z,100289.91
2023-05-24T10:59:06.759Z,100291.56
2023-05-24T11:02:15.103Z,100274.63
2023-05-24T11:05:18.496Z,100283.03
2023-05-24T11:08:33.419Z,100285.75
2023-05-24T11:11:38.324Z,100278.56
2023-05-24T11:14:41.327Z,100271.81
2023-05-24T11:18:17.535Z,100277.34
2023-05-24T11:21:20.268Z,100256.25
2023-05-24T11:24:23.783Z,100265.44
2023-05-24T11:27:26.793Z,100263.25
2023-05-24T11:30:29.297Z,100261.34
2023-05-24T11:33:32.178Z,100255.66
2023-05-24T11:36:36.578Z,100262.84
2023-05-24T11:39:39.338Z,100248.47
2023-05-24T11:42:41.899Z,100249.56
2023-05-24T11:45:48.710Z,100258.41
2023-05-24T11:48:57.444Z,100254.53
2023-05-24T11:52:00.990Z,100244.59
2023-05-24T11:55:04.347Z,100249.28
2023-05-24T11:58:19.700Z,100237.06
2023-05-24T12:01:28.770Z,100240.72
2023-05-24T12:04:33.236Z,100243.53
2023-05-24T12:07:36.664Z,100249.81
2023-05-24T12:10:41.249Z,100246.97
2023-05-24T12:13:44.005Z,100255.34
2023-05-24T12:16:47.236Z,100242.09
2023-05-24T12:19:51.950Z,100243.88
2023-05-24T12:22:56.093Z,100239.47
2023-05-24T12:26:02.311Z,100249.28
2023-05-24T12:29:05.179Z,100234.97
2023-05-24T12:32:13.174Z,100234.13
2023-05-24T12:35:19.310Z,100235.09
2023-05-24T12:38:25.631Z,100231.38
2023-05-24T12:41:30.828Z,100225.03
2023-05-24T12:44:37.511Z,100219.63
2023-05-24T12:47:40.145Z,100213.66
2023-05-24T12:50:42.953Z,100226.16
2023-05-24T12:53:46.405Z,100213.69
2023-05-24T12:56:49.029Z,100205.06
2023-05-24T12:59:51.576Z,100192.84
2023-05-24T13:02:56.774Z,100205.00
2023-05-24T13:06:00.051Z,100212.84
2023-05-24T13:09:02.928Z,100208.28
2023-05-24T13:12:06.240Z,100207.38
2023-05-24T13:15:09.130Z,100206.53
2023-05-24T13:18:13.403Z,100212.06
2023-05-24T13:21:16.311Z,100196.69
2023-05-24T13:24:19.822Z,100220.44
2023-05-24T13:27:22.292Z,100215.97
2023-05-24T13:30:27.940Z,100216.97
2023-05-24T13:33:34.392Z,100205.34
2023-05-24T13:36:38.162Z,100211.28
2023-05-24T13:39:40.993Z,100200.56
2023-05-24T13:42:43.506Z,100211.41
2023-05-24T13:45:46.142Z,100197.91
2023-05-24T13:48:48.691Z,100203.84
2023-05-24T13:51:52.322Z,100191.22
2023-05-24T13:54:54.806Z,100186.13
2023-05-24T13:57:57.419Z,100197.09
2023-05-24T14:01:01.197Z,100199.31
2023-05-24T14:04:05.398Z,100179.78
2023-05-24T14:07:09.591Z,100185.25
2023-05-24T14:10:12.988Z,100185.09
2023-05-24T14:13:51.591Z,100178.97
2023-05-24T14:16:38.631Z,100190.34
2023-05-24T14:19:41.366Z,100202.44
2023-05-24T14:22:43.931Z,100195.69
2023-05-24T14:25:47.037Z,100202.03
2023-05-24T14:28:49.705Z,100198.06
2023-05-24T14:31:52.268Z,100199.50
2023-05-24T14:34:55.092Z,100188.97
2023-05-24T14:37:57.576Z,100187.06
2023-05-24T14:41:01.625Z,100190.06
2023-05-24T14:44:04.244Z,100202.50
2023-05-24T14:47:07.359Z,100191.81
2023-05-24T14:50:09.912Z,100204.41
2023-05-24T14:53:12.859Z,100211.91
2023-05-24T14:56:16.263Z,100198.91
2023-05-24T14:59:18.820Z,100201.16
2023-05-24T15:02:21.443Z,100209.91
2023-05-24T15:05:23.861Z,100212.28
2023-05-24T15:08:27.260Z,100204.97
2023-05-24T15:11:30.118Z,100217.25
2023-05-24T15:14:34.143Z,100208.63
2023-05-24T15:17:37.527Z,100221.88
2023-05-24T15:20:41.486Z,100219.94
2023-05-24T15:23:44.324Z,100220.63
2023-05-24T15:26:47.354Z,100220.50
2023-05-24T15:29:50.888Z,100229.78
2023-05-24T15:32:53.622Z,100211.00
2023-05-24T15:35:56.758Z,100225.88
2023-05-24T15:39:01.316Z,100220.34
2023-05-24T15:42:04.198Z,100221.03
2023-05-24T15:45:07.283Z,100221.00
2023-05-24T15:48:10.257Z,100202.31
2023-05-24T15:54:18.522Z,100203.97
2023-05-24T15:57:21.285Z,100209.66
2023-05-24T16:00:24.224Z,100221.41
2023-05-24T16:03:26.874Z,100211.78
2023-05-24T16:06:29.450Z,100216.31
2023-05-24T16:09:32.084Z,100230.44
2023-05-24T16:12:34.783Z,100218.06
2023-05-24T16:15:40.873Z,100236.28
2023-05-24T16:18:43.392Z,100239.13
2023-05-24T16:21:45.830Z,100220.06
2023-05-24T16:24:48.249Z,100232.19
2023-05-24T16:27:51.450Z,100230.81
2023-05-24T16:30:56.204Z,100249.44
2023-05-24T16:33:59.027Z,100255.53
2023-05-24T16:37:03.375Z,100248.38
2023-05-24T16:40:07.409Z,100255.44
2023-05-24T16:43:09.978Z,100258.16
2023-05-24T16:46:12.493Z,100267.97
2023-05-24T16:49:15.171Z,100262.09
2023-05-24T16:52:17.674Z,100267.22
2023-05-24T16:55:20.509Z,100279.19
2023-05-24T16:58:24.561Z,100275.09
2023-05-24T17:01:27.109Z,100277.91
2023-05-24T17:04:30.813Z,100290.34
2023-05-24T17:07:33.573Z,100279.13
2023-05-24T17:10:36.134Z,100281.66
2023-05-24T17:13:38.641Z,100276.56
2023-05-24T17:16:41.437Z,100292.59
2023-05-24T17:19:44.026Z,100272.75
2023-05-24T17:22:46.727Z,100293.94
2023-05-24T17:25:49.252Z,100280.31
2023-05-24T17:28:52.045Z,100292.22
2023-05-24T17:31:54.591Z,100289.00
2023-05-24T17:34:57.629Z,100293.03
2023-05-24T17:38:00.168Z,100288.97
2023-05-24T17:41:02.655Z,100299.09
2023-05-24T17:44:05.297Z,100307.66
2023-05-24T17:47:07.962Z,100310.28
2023-05-24T17:50:10.938Z,100287.44
2023-05-24T17:53:30.218Z,100306.50
2023-05-24T17:56:33.677Z,100327.09
2023-05-24T17:59:36.431Z,100313.28
2023-05-24T18:02:39.004Z,100325.28
2023-05-24T18:05:41.907Z,100325.44
2023-05-24T18:08:44.723Z,100328.03
2023-05-24T18:11:47.574Z,100308.09
2023-05-24T18:14:50.115Z,100343.38
2023-05-24T18:17:52.656Z,100327.88
2023-05-24T18:20:55.758Z,100346.53
2023-05-24T18:23:58.307Z,100345.53
2023-05-24T18:27:02.228Z,100358.19
2023-05-24T18:30:07.845Z,100337.78
2023-05-24T18:33:10.770Z,100369.91
2023-05-24T18:36:13.447Z,100366.56
2023-05-24T18:39:16.557Z,100378.31
2023-05-24T18:42:19.045Z,100365.41
2023-05-24T18:45:22.060Z,100376.47
2023-05-24T18:48:24.500Z,100402.53
2023-05-24T18:51:27.178Z,100382.53
2023-05-24T18:54:31.330Z,100377.41
2023-05-24T18:57:33.887Z,100382.19
2023-05-24T19:00:36.816Z,100385.44
2023-05-24T19:03:41.714Z,100393.94
2023-05-24T19:06:44.263Z,100394.47
2023-05-24T19:09:46.937Z,100399.25
2023-05-24T19:12:49.501Z,100401.94
2023-05-24T19:15:53.654Z,100412.47
2023-05-24T19:18:56.369Z,100408.28
2023-05-24T19:21:59.640Z,100415.13
2023-05-24T19:25:02.232Z,100420.41
2023-05-24T19:28:04.768Z,100419.88
2023-05-24T19:31:07.817Z,100425.97
2023-05-24T19:34:10.320Z,100418.31
2023-05-24T19:37:12.863Z,100422.81
2023-05-24T19:40:15.465Z,100430.50
2023-05-24T19:43:17.992Z,100434.44
2023-05-24T19:46:23.113Z,100425.72
2023-05-24T19:49:25.810Z,100405.66
2023-05-24T19:52:28.367Z,100417.56
2023-05-24T19:55:30.951Z,100422.84
2023-05-24T19:58:33.681Z,100433.38
2023-05-24T20:01:36.942Z,100421.75
2023-05-24T20:04:42.013Z,100423.56
2023-05-24T20:07:45.462Z,100424.88
2023-05-24T20:10:49.013Z,100420.38
2023-05-24T20:13:52.727Z,100424.06
2023-05-24T20:16:55.624Z,100427.22
2023-05-24T20:19:58.204Z,100427.97
2023-05-24T20:23:00.742Z,100419.47
2023-05-24T20:26:03.257Z,100409.66
2023-05-24T20:29:05.906Z,100418.88
2023-05-24T20:32:08.475Z,100433.91
2023-05-24T20:35:11.204Z,100413.81
2023-05-24T20:38:13.708Z,100429.59
2023-05-24T20:41:17.648Z,100408.19
2023-05-24T20:44:20.242Z,100427.41
2023-05-24T20:47:22.823Z,100441.91
2023-05-24T20:50:26.203Z,100455.84
2023-05-24T20:53:28.686Z,100441.25
2023-05-24T20:56:31.358Z,100440.50
2023-05-24T20:59:33.876Z,100442.31
2023-05-24T21:02:37.363Z,100433.53
2023-05-24T21:05:40.401Z,100428.19
2023-05-24T21:08:43.256Z,100437.16
2023-05-24T21:11:45.790Z,100446.88
2023-05-24T21:14:48.289Z,100448.16
2023-05-24T21:17:50.878Z,100457.59
2023-05-24T21:20:53.501Z,100455.75
2023-05-24T21:23:56.724Z,100471.56
2023-05-24T21:26:59.199Z,100455.94
2023-05-24T21:30:01.762Z,100445.22
2023-05-24T21:33:04.438Z,100452.63
2023-05-24T21:36:07.121Z,100464.59
2023-05-24T21:39:09.717Z,100468.41
2023-05-24T21:42:12.337Z,100468.81
2023-05-24T21:45:14.953Z,100466.13
2023-05-24T21:48:17.451Z,100468.25
2023-05-24T21:51:19.868Z,100466.31
2023-05-24T21:54:22.500Z,100452.25
2023-05-24T21:57:26.497Z,100469.97
2023-05-24T22:00:29.139Z,100480.97
2023-05-24T22:03:31.708Z,100487.50
2023-05-24T22:06:34.280Z,100486.44
2023-05-24T22:09:36.828Z,100483.44
2023-05-24T22:12:39.507Z,100469.56
2023-05-24T22:15:42.145Z,100488.44
2023-05-24T22:18:45.302Z,100499.75
2023-05-24T22:21:50.377Z,100486.97
2023-05-24T22:24:52.846Z,100481.81
2023-05-24T22:27:58.272Z,100493.91
2023-05-24T22:31:00.830Z,100512.63
2023-05-24T22:34:04.213Z,100501.41
2023-05-24T22:37:07.572Z,100507.03
2023-05-24T22:40:11.566Z,100514.16
2023-05-24T22:43:14.164Z,100511.72
2023-05-24T22:46:16.939Z,100514.78
2023-05-24T22:49:19.956Z,100521.81
2023-05-24T22:52:24.619Z,100534.38
2023-05-24T22:55:27.088Z,100529.28
2023-05-24T22:58:29.695Z,100530.72
2023-05-24T23:01:33.704Z,100523.72
2023-05-24T23:04:37.852Z,100518.47
2023-05-24T23:07:40.544Z,100528.25
2023-05-24T23:10:45.715Z,100523.56
2023-05-24T23:13:51.837Z,100548.09
2023-05-24T23:16:54.429Z,100541.31
2023-05-24T23:19:57.047Z,100545.53
2023-05-24T23:23:02.800Z,100530.19
2023-05-24T23:26:05.541Z,100541.63
2023-05-24T23:29:08.075Z,100530.44
2023-05-24T23:32:10.928Z,100540.22
2023-05-24T23:35:13.413Z,100527.31
2023-05-24T23:38:16.376Z,100532.00
2023-05-24T23:41:18.804Z,100540.91
2023-05-24T23:44:25.822Z,100544.97
2023-05-24T23:47:28.602Z,100532.16
2023-05-24T23:50:37.364Z,100518.38
2023-05-24T23:53:45.594Z,100524.38
2023-05-24T23:56:48.598Z,100546.16
2023-05-24T23:59:51.272Z,100537.34
